sensor_id;sensor_type;location;lat;lon;timestamp;P1;durP1;ratioP1;P2;durP2;ratioP2
21639;SDS011;10981;45.462;10.974;2023-04-03T00:02:00;3.55;;;1.00;;
21639;SDS011;10981;45.462;10.974;2023-04-03T00:04:30;1.92;;;1.33;;
21639;SDS011;10981;45.462;10.974;2023-04-03T00:06:58;1.00;;;0.93;;
21639;SDS011;10981;45.462;10.974;2023-04-03T00:09:27;1.75;;;1.10;;
21639;SDS011;10981;45.462;10.974;2023-04-03T00:11:55;1.67;;;1.10;;
21639;SDS011;10981;45.462;10.974;2023-04-03T00:14:23;1.60;;;1.20;;
21639;SDS011;10981;45.462;10.974;2023-04-03T00:16:51;1.85;;;1.30;;
21639;SDS011;10981;45.462;10.974;2023-04-03T00:19:20;1.88;;;1.40;;
21639;SDS011;10981;45.462;10.974;2023-04-03T00:21:48;1.85;;;1.20;;
21639;SDS011;10981;45.462;10.974;2023-04-03T00:24:17;4.55;;;1.15;;
21639;SDS011;10981;45.462;10.974;2023-04-03T00:26:45;1.58;;;1.10;;
21639;SDS011;10981;45.462;10.974;2023-04-03T00:29:14;2.13;;;0.90;;
21639;SDS011;10981;45.462;10.974;2023-04-03T00:31:42;1.30;;;1.10;;
21639;SDS011;10981;45.462;10.974;2023-04-03T00:34:10;1.27;;;0.95;;
21639;SDS011;10981;45.462;10.974;2023-04-03T00:36:38;0.90;;;0.88;;
21639;SDS011;10981;45.462;10.974;2023-04-03T00:39:07;1.55;;;1.10;;
21639;SDS011;10981;45.462;10.974;2023-04-03T00:41:35;0.98;;;0.98;;
21639;SDS011;10981;45.462;10.974;2023-04-03T00:44:22;1.52;;;1.15;;
21639;SDS011;10981;45.462;10.974;2023-04-03T00:47:00;1.10;;;1.00;;
21639;SDS011;10981;45.462;10.974;2023-04-03T00:49:30;1.55;;;0.90;;
21639;SDS011;10981;45.462;10.974;2023-04-03T00:51:59;1.15;;;0.80;;
21639;SDS011;10981;45.462;10.974;2023-04-03T00:54:27;1.25;;;1.10;;
21639;SDS011;10981;45.462;10.974;2023-04-03T00:56:56;1.40;;;0.90;;
21639;SDS011;10981;45.462;10.974;2023-04-03T00:59:30;3.47;;;1.42;;
21639;SDS011;10981;45.462;10.974;2023-04-03T01:02:03;2.53;;;1.10;;
21639;SDS011;10981;45.462;10.974;2023-04-03T01:07:02;2.35;;;1.27;;
21639;SDS011;10981;45.462;10.974;2023-04-03T01:09:48;2.83;;;1.17;;
21639;SDS011;10981;45.462;10.974;2023-04-03T01:12:21;3.47;;;1.55;;
21639;SDS011;10981;45.462;10.974;2023-04-03T01:15:26;2.42;;;1.70;;
21639;SDS011;10981;45.462;10.974;2023-04-03T01:17:55;1.65;;;1.55;;
21639;SDS011;10981;45.462;10.974;2023-04-03T01:25:27;1.73;;;1.20;;
21639;SDS011;10981;45.462;10.974;2023-04-03T01:27:57;5.80;;;1.33;;
21639;SDS011;10981;45.462;10.974;2023-04-03T01:30:28;2.35;;;1.70;;
21639;SDS011;10981;45.462;10.974;2023-04-03T01:33:00;1.77;;;1.50;;
21639;SDS011;10981;45.462;10.974;2023-04-03T01:35:29;3.45;;;1.52;;
21639;SDS011;10981;45.462;10.974;2023-04-03T01:37:57;2.63;;;1.38;;
21639;SDS011;10981;45.462;10.974;2023-04-03T01:40:26;2.72;;;1.60;;
21639;SDS011;10981;45.462;10.974;2023-04-03T01:42:54;3.53;;;1.60;;
21639;SDS011;10981;45.462;10.974;2023-04-03T01:45:22;3.60;;;1.45;;
21639;SDS011;10981;45.462;10.974;2023-04-03T01:47:50;6.47;;;2.25;;
21639;SDS011;10981;45.462;10.974;2023-04-03T01:50:19;2.00;;;1.50;;
21639;SDS011;10981;45.462;10.974;2023-04-03T01:52:47;2.92;;;1.27;;
21639;SDS011;10981;45.462;10.974;2023-04-03T01:55:15;2.85;;;1.65;;
21639;SDS011;10981;45.462;10.974;2023-04-03T01:57:44;2.17;;;1.40;;
21639;SDS011;10981;45.462;10.974;2023-04-03T02:00:12;2.67;;;1.60;;
21639;SDS011;10981;45.462;10.974;2023-04-03T02:02:41;2.17;;;1.52;;
21639;SDS011;10981;45.462;10.974;2023-04-03T02:05:09;2.60;;;1.67;;
21639;SDS011;10981;45.462;10.974;2023-04-03T02:07:38;2.58;;;1.63;;
21639;SDS011;10981;45.462;10.974;2023-04-03T02:10:07;1.80;;;1.30;;
21639;SDS011;10981;45.462;10.974;2023-04-03T02:12:39;3.25;;;1.50;;
21639;SDS011;10981;45.462;10.974;2023-04-03T02:15:07;1.75;;;1.60;;
21639;SDS011;10981;45.462;10.974;2023-04-03T02:17:36;2.70;;;1.40;;
21639;SDS011;10981;45.462;10.974;2023-04-03T02:20:04;2.22;;;2.03;;
21639;SDS011;10981;45.462;10.974;2023-04-03T02:22:33;1.80;;;1.20;;
21639;SDS011;10981;45.462;10.974;2023-04-03T02:25:01;2.15;;;1.58;;
21639;SDS011;10981;45.462;10.974;2023-04-03T02:27:30;2.97;;;1.45;;
21639;SDS011;10981;45.462;10.974;2023-04-03T02:29:58;2.10;;;1.60;;
21639;SDS011;10981;45.462;10.974;2023-04-03T02:32:26;2.00;;;1.50;;
21639;SDS011;10981;45.462;10.974;2023-04-03T02:34:57;2.92;;;1.55;;
21639;SDS011;10981;45.462;10.974;2023-04-03T02:37:27;2.03;;;1.50;;
21639;SDS011;10981;45.462;10.974;2023-04-03T02:39:55;1.65;;;1.55;;
21639;SDS011;10981;45.462;10.974;2023-04-03T02:42:23;1.50;;;1.15;;
21639;SDS011;10981;45.462;10.974;2023-04-03T02:44:52;2.25;;;1.70;;
21639;SDS011;10981;45.462;10.974;2023-04-03T02:47:20;3.20;;;1.48;;
21639;SDS011;10981;45.462;10.974;2023-04-03T02:49:48;2.35;;;1.48;;
21639;SDS011;10981;45.462;10.974;2023-04-03T02:52:16;4.45;;;1.30;;
21639;SDS011;10981;45.462;10.974;2023-04-03T02:54:46;3.38;;;2.03;;
21639;SDS011;10981;45.462;10.974;2023-04-03T02:57:14;3.80;;;1.60;;
21639;SDS011;10981;45.462;10.974;2023-04-03T02:59:43;1.63;;;1.40;;
21639;SDS011;10981;45.462;10.974;2023-04-03T03:02:12;4.35;;;1.83;;
21639;SDS011;10981;45.462;10.974;2023-04-03T03:04:42;1.77;;;1.40;;
21639;SDS011;10981;45.462;10.974;2023-04-03T03:07:10;3.97;;;1.65;;
21639;SDS011;10981;45.462;10.974;2023-04-03T03:09:38;2.65;;;1.70;;
21639;SDS011;10981;45.462;10.974;2023-04-03T03:12:06;4.63;;;1.67;;
21639;SDS011;10981;45.462;10.974;2023-04-03T03:14:34;1.75;;;1.50;;
21639;SDS011;10981;45.462;10.974;2023-04-03T03:17:02;1.35;;;1.17;;
21639;SDS011;10981;45.462;10.974;2023-04-03T03:19:30;4.85;;;1.75;;
21639;SDS011;10981;45.462;10.974;2023-04-03T03:21:59;1.27;;;1.17;;
21639;SDS011;10981;45.462;10.974;2023-04-03T03:24:27;3.35;;;2.72;;
21639;SDS011;10981;45.462;10.974;2023-04-03T03:26:55;2.15;;;1.30;;
21639;SDS011;10981;45.462;10.974;2023-04-03T03:29:23;2.10;;;1.20;;
21639;SDS011;10981;45.462;10.974;2023-04-03T03:31:52;4.07;;;1.10;;
21639;SDS011;10981;45.462;10.974;2023-04-03T03:34:21;2.28;;;1.50;;
21639;SDS011;10981;45.462;10.974;2023-04-03T03:36:49;3.30;;;2.17;;
21639;SDS011;10981;45.462;10.974;2023-04-03T03:39:17;1.52;;;1.42;;
21639;SDS011;10981;45.462;10.974;2023-04-03T03:41:45;4.85;;;1.60;;
21639;SDS011;10981;45.462;10.974;2023-04-03T03:44:14;2.03;;;1.30;;
21639;SDS011;10981;45.462;10.974;2023-04-03T03:46:42;3.50;;;1.00;;
21639;SDS011;10981;45.462;10.974;2023-04-03T03:49:11;2.03;;;1.25;;
21639;SDS011;10981;45.462;10.974;2023-04-03T03:51:40;4.20;;;1.58;;
21639;SDS011;10981;45.462;10.974;2023-04-03T03:54:09;3.30;;;1.50;;
21639;SDS011;10981;45.462;10.974;2023-04-03T03:56:37;1.95;;;1.30;;
21639;SDS011;10981;45.462;10.974;2023-04-03T03:59:06;2.28;;;1.50;;
21639;SDS011;10981;45.462;10.974;2023-04-03T04:01:34;1.30;;;1.20;;
21639;SDS011;10981;45.462;10.974;2023-04-03T04:04:03;1.30;;;1.17;;
21639;SDS011;10981;45.462;10.974;2023-04-03T04:06:31;2.03;;;1.10;;
21639;SDS011;10981;45.462;10.974;2023-04-03T04:09:03;1.92;;;1.20;;
21639;SDS011;10981;45.462;10.974;2023-04-03T04:11:31;2.80;;;1.75;;
21639;SDS011;10981;45.462;10.974;2023-04-03T04:14:00;2.00;;;1.38;;
21639;SDS011;10981;45.462;10.974;2023-04-03T04:16:29;2.75;;;1.50;;
21639;SDS011;10981;45.462;10.974;2023-04-03T04:21:35;1.30;;;1.20;;
21639;SDS011;10981;45.462;10.974;2023-04-03T04:24:04;1.80;;;1.17;;
21639;SDS011;10981;45.462;10.974;2023-04-03T04:26:32;3.03;;;1.38;;
21639;SDS011;10981;45.462;10.974;2023-04-03T04:29:01;3.47;;;1.23;;
21639;SDS011;10981;45.462;10.974;2023-04-03T04:31:32;3.30;;;1.15;;
21639;SDS011;10981;45.462;10.974;2023-04-03T04:34:01;1.20;;;0.90;;
21639;SDS011;10981;45.462;10.974;2023-04-03T04:36:30;2.55;;;1.20;;
21639;SDS011;10981;45.462;10.974;2023-04-03T04:38:58;1.20;;;1.00;;
21639;SDS011;10981;45.462;10.974;2023-04-03T04:41:27;1.52;;;0.93;;
21639;SDS011;10981;45.462;10.974;2023-04-03T04:43:56;1.95;;;1.02;;
21639;SDS011;10981;45.462;10.974;2023-04-03T04:46:25;1.83;;;1.10;;
21639;SDS011;10981;45.462;10.974;2023-04-03T04:48:57;0.80;;;0.80;;
21639;SDS011;10981;45.462;10.974;2023-04-03T04:51:28;2.25;;;0.90;;
21639;SDS011;10981;45.462;10.974;2023-04-03T04:54:07;1.48;;;0.93;;
21639;SDS011;10981;45.462;10.974;2023-04-03T04:56:36;0.80;;;0.80;;
21639;SDS011;10981;45.462;10.974;2023-04-03T04:59:04;1.63;;;1.02;;
21639;SDS011;10981;45.462;10.974;2023-04-03T05:01:35;0.80;;;0.80;;
21639;SDS011;10981;45.462;10.974;2023-04-03T05:04:09;1.15;;;1.05;;
21639;SDS011;10981;45.462;10.974;2023-04-03T05:06:40;3.58;;;1.63;;
21639;SDS011;10981;45.462;10.974;2023-04-03T05:11:43;1.45;;;1.00;;
21639;SDS011;10981;45.462;10.974;2023-04-03T05:14:14;1.77;;;1.05;;
21639;SDS011;10981;45.462;10.974;2023-04-03T05:16:42;3.40;;;1.80;;
21639;SDS011;10981;45.462;10.974;2023-04-03T05:19:10;1.58;;;1.38;;
21639;SDS011;10981;45.462;10.974;2023-04-03T05:21:40;1.50;;;1.30;;
21639;SDS011;10981;45.462;10.974;2023-04-03T05:24:13;1.08;;;1.00;;
21639;SDS011;10981;45.462;10.974;2023-04-03T05:26:43;2.53;;;1.13;;
21639;SDS011;10981;45.462;10.974;2023-04-03T05:29:12;1.58;;;1.25;;
21639;SDS011;10981;45.462;10.974;2023-04-03T05:31:41;2.58;;;1.52;;
21639;SDS011;10981;45.462;10.974;2023-04-03T05:34:11;3.03;;;1.17;;
21639;SDS011;10981;45.462;10.974;2023-04-03T05:36:40;3.42;;;1.20;;
21639;SDS011;10981;45.462;10.974;2023-04-03T05:39:10;1.27;;;1.17;;
21639;SDS011;10981;45.462;10.974;2023-04-03T05:41:41;3.15;;;1.23;;
21639;SDS011;10981;45.462;10.974;2023-04-03T05:44:09;3.38;;;1.40;;
21639;SDS011;10981;45.462;10.974;2023-04-03T05:46:38;1.73;;;1.33;;
21639;SDS011;10981;45.462;10.974;2023-04-03T05:49:08;2.55;;;1.60;;
21639;SDS011;10981;45.462;10.974;2023-04-03T05:51:38;1.98;;;1.60;;
21639;SDS011;10981;45.462;10.974;2023-04-03T05:54:29;3.35;;;1.73;;
21639;SDS011;10981;45.462;10.974;2023-04-03T05:57:07;2.17;;;1.73;;
21639;SDS011;10981;45.462;10.974;2023-04-03T05:59:36;1.65;;;1.55;;
21639;SDS011;10981;45.462;10.974;2023-04-03T06:02:05;2.28;;;1.30;;
21639;SDS011;10981;45.462;10.974;2023-04-03T06:04:33;7.38;;;1.40;;
21639;SDS011;10981;45.462;10.974;2023-04-03T06:07:02;1.70;;;1.35;;
21639;SDS011;10981;45.462;10.974;2023-04-03T06:09:32;3.42;;;1.25;;
21639;SDS011;10981;45.462;10.974;2023-04-03T06:12:01;2.78;;;0.82;;
21639;SDS011;10981;45.462;10.974;2023-04-03T06:14:30;1.73;;;0.98;;
21639;SDS011;10981;45.462;10.974;2023-04-03T06:16:58;4.55;;;1.17;;
21639;SDS011;10981;45.462;10.974;2023-04-03T06:19:27;3.40;;;1.60;;
21639;SDS011;10981;45.462;10.974;2023-04-03T06:21:56;5.82;;;2.28;;
21639;SDS011;10981;45.462;10.974;2023-04-03T06:24:24;2.13;;;1.30;;
21639;SDS011;10981;45.462;10.974;2023-04-03T06:26:53;1.50;;;1.05;;
21639;SDS011;10981;45.462;10.974;2023-04-03T06:29:21;2.95;;;1.30;;
21639;SDS011;10981;45.462;10.974;2023-04-03T06:31:51;3.20;;;1.20;;
21639;SDS011;10981;45.462;10.974;2023-04-03T06:34:20;1.92;;;1.23;;
21639;SDS011;10981;45.462;10.974;2023-04-03T06:36:49;6.10;;;1.70;;
21639;SDS011;10981;45.462;10.974;2023-04-03T06:39:18;3.22;;;1.58;;
21639;SDS011;10981;45.462;10.974;2023-04-03T06:41:48;2.35;;;1.33;;
21639;SDS011;10981;45.462;10.974;2023-04-03T06:44:19;3.42;;;1.58;;
21639;SDS011;10981;45.462;10.974;2023-04-03T06:46:47;3.38;;;1.63;;
21639;SDS011;10981;45.462;10.974;2023-04-03T06:49:16;5.72;;;1.88;;
21639;SDS011;10981;45.462;10.974;2023-04-03T06:51:45;7.95;;;2.30;;
21639;SDS011;10981;45.462;10.974;2023-04-03T06:54:13;3.38;;;1.73;;
21639;SDS011;10981;45.462;10.974;2023-04-03T06:56:42;4.13;;;1.70;;
21639;SDS011;10981;45.462;10.974;2023-04-03T06:59:11;3.17;;;1.60;;
21639;SDS011;10981;45.462;10.974;2023-04-03T07:01:40;6.55;;;1.23;;
21639;SDS011;10981;45.462;10.974;2023-04-03T07:04:09;3.40;;;1.40;;
21639;SDS011;10981;45.462;10.974;2023-04-03T07:06:37;2.67;;;1.42;;
21639;SDS011;10981;45.462;10.974;2023-04-03T07:09:06;2.38;;;1.40;;
21639;SDS011;10981;45.462;10.974;2023-04-03T07:11:34;4.60;;;1.55;;
21639;SDS011;10981;45.462;10.974;2023-04-03T07:14:05;5.70;;;1.42;;
21639;SDS011;10981;45.462;10.974;2023-04-03T07:16:35;9.32;;;3.60;;
21639;SDS011;10981;45.462;10.974;2023-04-03T07:19:03;4.75;;;2.58;;
21639;SDS011;10981;45.462;10.974;2023-04-03T07:21:31;5.32;;;2.10;;
21639;SDS011;10981;45.462;10.974;2023-04-03T07:23:59;7.70;;;1.70;;
21639;SDS011;10981;45.462;10.974;2023-04-03T07:26:27;3.35;;;1.67;;
21639;SDS011;10981;45.462;10.974;2023-04-03T07:28:55;5.43;;;2.00;;
21639;SDS011;10981;45.462;10.974;2023-04-03T07:31:24;3.30;;;1.80;;
21639;SDS011;10981;45.462;10.974;2023-04-03T07:33:52;3.60;;;1.52;;
21639;SDS011;10981;45.462;10.974;2023-04-03T07:36:21;6.80;;;2.08;;
21639;SDS011;10981;45.462;10.974;2023-04-03T07:38:50;2.78;;;1.63;;
21639;SDS011;10981;45.462;10.974;2023-04-03T07:41:19;7.35;;;2.08;;
21639;SDS011;10981;45.462;10.974;2023-04-03T07:43:49;7.30;;;1.67;;
21639;SDS011;10981;45.462;10.974;2023-04-03T07:46:17;3.40;;;2.03;;
21639;SDS011;10981;45.462;10.974;2023-04-03T07:48:46;5.60;;;1.95;;
21639;SDS011;10981;45.462;10.974;2023-04-03T07:51:14;9.43;;;1.95;;
21639;SDS011;10981;45.462;10.974;2023-04-03T07:53:43;6.25;;;2.00;;
21639;SDS011;10981;45.462;10.974;2023-04-03T07:56:11;4.43;;;2.35;;
21639;SDS011;10981;45.462;10.974;2023-04-03T07:58:39;4.97;;;2.30;;
21639;SDS011;10981;45.462;10.974;2023-04-03T08:01:08;7.85;;;1.90;;
21639;SDS011;10981;45.462;10.974;2023-04-03T08:03:37;9.27;;;2.22;;
21639;SDS011;10981;45.462;10.974;2023-04-03T08:06:07;5.07;;;1.88;;
21639;SDS011;10981;45.462;10.974;2023-04-03T08:08:42;6.20;;;2.10;;
21639;SDS011;10981;45.462;10.974;2023-04-03T08:11:10;7.53;;;2.20;;
21639;SDS011;10981;45.462;10.974;2023-04-03T08:13:39;2.85;;;1.73;;
21639;SDS011;10981;45.462;10.974;2023-04-03T08:16:12;7.28;;;1.95;;
21639;SDS011;10981;45.462;10.974;2023-04-03T08:18:44;7.20;;;1.75;;
21639;SDS011;10981;45.462;10.974;2023-04-03T08:21:12;5.00;;;2.10;;
21639;SDS011;10981;45.462;10.974;2023-04-03T08:23:41;4.25;;;1.80;;
21639;SDS011;10981;45.462;10.974;2023-04-03T08:26:10;3.35;;;1.58;;
21639;SDS011;10981;45.462;10.974;2023-04-03T08:28:40;8.13;;;1.95;;
21639;SDS011;10981;45.462;10.974;2023-04-03T08:31:11;5.97;;;1.98;;
21639;SDS011;10981;45.462;10.974;2023-04-03T08:33:42;6.90;;;1.92;;
21639;SDS011;10981;45.462;10.974;2023-04-03T08:36:19;6.55;;;2.38;;
21639;SDS011;10981;45.462;10.974;2023-04-03T08:38:49;6.00;;;2.20;;
21639;SDS011;10981;45.462;10.974;2023-04-03T08:41:26;7.50;;;1.83;;
21639;SDS011;10981;45.462;10.974;2023-04-03T08:46:59;3.55;;;1.95;;
21639;SDS011;10981;45.462;10.974;2023-04-03T08:49:31;7.68;;;2.17;;
21639;SDS011;10981;45.462;10.974;2023-04-03T08:52:05;4.22;;;1.80;;
21639;SDS011;10981;45.462;10.974;2023-04-03T08:57:26;4.93;;;2.13;;
21639;SDS011;10981;45.462;10.974;2023-04-03T09:00:20;5.40;;;2.15;;
21639;SDS011;10981;45.462;10.974;2023-04-03T09:02:53;4.97;;;2.13;;
21639;SDS011;10981;45.462;10.974;2023-04-03T09:05:29;3.50;;;2.00;;
21639;SDS011;10981;45.462;10.974;2023-04-03T09:10:58;7.68;;;1.90;;
21639;SDS011;10981;45.462;10.974;2023-04-03T09:16:29;5.72;;;1.73;;
21639;SDS011;10981;45.462;10.974;2023-04-03T09:19:14;11.48;;;2.13;;
21639;SDS011;10981;45.462;10.974;2023-04-03T09:22:13;6.53;;;1.90;;
21639;SDS011;10981;45.462;10.974;2023-04-03T09:24:47;7.05;;;2.63;;
21639;SDS011;10981;45.462;10.974;2023-04-03T09:27:32;4.80;;;2.20;;
21639;SDS011;10981;45.462;10.974;2023-04-03T09:30:01;7.45;;;2.83;;
21639;SDS011;10981;45.462;10.974;2023-04-03T09:32:30;3.53;;;2.58;;
21639;SDS011;10981;45.462;10.974;2023-04-03T09:35:13;8.25;;;2.08;;
21639;SDS011;10981;45.462;10.974;2023-04-03T09:40:41;4.70;;;1.92;;
21639;SDS011;10981;45.462;10.974;2023-04-03T09:43:19;10.48;;;2.40;;
21639;SDS011;10981;45.462;10.974;2023-04-03T09:45:50;2.80;;;2.20;;
21639;SDS011;10981;45.462;10.974;2023-04-03T09:48:20;4.97;;;1.83;;
21639;SDS011;10981;45.462;10.974;2023-04-03T09:58:51;5.90;;;2.17;;
21639;SDS011;10981;45.462;10.974;2023-04-03T10:01:36;4.28;;;2.47;;
21639;SDS011;10981;45.462;10.974;2023-04-03T10:06:42;5.70;;;2.30;;
21639;SDS011;10981;45.462;10.974;2023-04-03T10:12:00;10.98;;;2.75;;
21639;SDS011;10981;45.462;10.974;2023-04-03T10:14:32;6.43;;;2.05;;
21639;SDS011;10981;45.462;10.974;2023-04-03T10:22:44;6.35;;;2.10;;
21639;SDS011;10981;45.462;10.974;2023-04-03T10:25:30;5.15;;;2.33;;
21639;SDS011;10981;45.462;10.974;2023-04-03T10:31:31;4.63;;;2.22;;
21639;SDS011;10981;45.462;10.974;2023-04-03T10:42:08;5.68;;;2.38;;
21639;SDS011;10981;45.462;10.974;2023-04-03T10:55:47;6.27;;;2.17;;
21639;SDS011;10981;45.462;10.974;2023-04-03T10:58:41;11.77;;;2.53;;
21639;SDS011;10981;45.462;10.974;2023-04-03T11:01:16;5.43;;;2.00;;
21639;SDS011;10981;45.462;10.974;2023-04-03T11:03:53;4.65;;;2.38;;
21639;SDS011;10981;45.462;10.974;2023-04-03T11:06:26;4.82;;;2.10;;
21639;SDS011;10981;45.462;10.974;2023-04-03T11:09:25;5.13;;;2.33;;
21639;SDS011;10981;45.462;10.974;2023-04-03T11:11:56;7.03;;;2.78;;
21639;SDS011;10981;45.462;10.974;2023-04-03T11:14:37;7.03;;;2.33;;
21639;SDS011;10981;45.462;10.974;2023-04-03T11:22:51;8.43;;;2.88;;
21639;SDS011;10981;45.462;10.974;2023-04-03T11:25:29;4.65;;;2.35;;
21639;SDS011;10981;45.462;10.974;2023-04-03T11:28:04;8.18;;;3.35;;
21639;SDS011;10981;45.462;10.974;2023-04-03T11:41:50;6.78;;;2.33;;
21639;SDS011;10981;45.462;10.974;2023-04-03T11:44:33;10.18;;;2.65;;
21639;SDS011;10981;45.462;10.974;2023-04-03T11:47:05;5.43;;;2.40;;
21639;SDS011;10981;45.462;10.974;2023-04-03T12:08:44;4.95;;;2.67;;
21639;SDS011;10981;45.462;10.974;2023-04-03T12:11:24;5.22;;;2.40;;
21639;SDS011;10981;45.462;10.974;2023-04-03T12:22:09;10.15;;;2.63;;
21639;SDS011;10981;45.462;10.974;2023-04-03T12:24:44;10.05;;;3.22;;
21639;SDS011;10981;45.462;10.974;2023-04-03T12:27:28;3.83;;;2.53;;
21639;SDS011;10981;45.462;10.974;2023-04-03T12:32:48;9.07;;;2.50;;
21639;SDS011;10981;45.462;10.974;2023-04-03T12:35:37;7.97;;;3.15;;
21639;SDS011;10981;45.462;10.974;2023-04-03T12:38:25;6.60;;;2.55;;
21639;SDS011;10981;45.462;10.974;2023-04-03T12:47:08;7.00;;;2.63;;
21639;SDS011;10981;45.462;10.974;2023-04-03T12:49:54;7.40;;;2.85;;
21639;SDS011;10981;45.462;10.974;2023-04-03T12:52:30;6.85;;;3.00;;
21639;SDS011;10981;45.462;10.974;2023-04-03T12:55:18;7.63;;;2.30;;
21639;SDS011;10981;45.462;10.974;2023-04-03T12:57:47;11.02;;;3.08;;
21639;SDS011;10981;45.462;10.974;2023-04-03T13:00:32;7.28;;;2.80;;
21639;SDS011;10981;45.462;10.974;2023-04-03T13:03:02;9.33;;;3.00;;
21639;SDS011;10981;45.462;10.974;2023-04-03T13:05:33;9.82;;;3.38;;
21639;SDS011;10981;45.462;10.974;2023-04-03T13:08:05;4.65;;;3.00;;
21639;SDS011;10981;45.462;10.974;2023-04-03T13:10:43;9.80;;;3.20;;
21639;SDS011;10981;45.462;10.974;2023-04-03T13:13:21;8.75;;;2.65;;
21639;SDS011;10981;45.462;10.974;2023-04-03T13:15:50;7.50;;;3.50;;
21639;SDS011;10981;45.462;10.974;2023-04-03T13:18:27;11.48;;;3.00;;
21639;SDS011;10981;45.462;10.974;2023-04-03T13:21:04;10.38;;;3.92;;
21639;SDS011;10981;45.462;10.974;2023-04-03T13:26:16;6.85;;;2.95;;
21639;SDS011;10981;45.462;10.974;2023-04-03T13:28:47;8.45;;;3.00;;
21639;SDS011;10981;45.462;10.974;2023-04-03T13:31:22;9.55;;;2.95;;
21639;SDS011;10981;45.462;10.974;2023-04-03T13:34:17;17.73;;;7.45;;
21639;SDS011;10981;45.462;10.974;2023-04-03T13:41:51;8.35;;;3.13;;
21639;SDS011;10981;45.462;10.974;2023-04-03T13:46:50;11.32;;;3.08;;
21639;SDS011;10981;45.462;10.974;2023-04-03T13:49:34;6.15;;;3.15;;
21639;SDS011;10981;45.462;10.974;2023-04-03T13:52:26;9.82;;;3.30;;
21639;SDS011;10981;45.462;10.974;2023-04-03T13:54:59;9.40;;;2.60;;
21639;SDS011;10981;45.462;10.974;2023-04-03T13:57:48;8.05;;;3.33;;
21639;SDS011;10981;45.462;10.974;2023-04-03T14:00:32;10.15;;;3.22;;
21639;SDS011;10981;45.462;10.974;2023-04-03T14:03:17;8.13;;;3.45;;
21639;SDS011;10981;45.462;10.974;2023-04-03T14:05:48;10.52;;;3.22;;
21639;SDS011;10981;45.462;10.974;2023-04-03T14:08:17;16.80;;;3.53;;
21639;SDS011;10981;45.462;10.974;2023-04-03T14:10:58;10.27;;;2.70;;
21639;SDS011;10981;45.462;10.974;2023-04-03T14:13:29;13.25;;;3.35;;
21639;SDS011;10981;45.462;10.974;2023-04-03T14:15:58;12.13;;;3.47;;
21639;SDS011;10981;45.462;10.974;2023-04-03T14:18:46;8.63;;;2.78;;
21639;SDS011;10981;45.462;10.974;2023-04-03T14:21:17;7.57;;;2.80;;
21639;SDS011;10981;45.462;10.974;2023-04-03T14:23:46;11.63;;;3.67;;
21639;SDS011;10981;45.462;10.974;2023-04-03T14:26:17;14.38;;;2.97;;
21639;SDS011;10981;45.462;10.974;2023-04-03T14:28:48;7.85;;;2.90;;
21639;SDS011;10981;45.462;10.974;2023-04-03T14:31:18;9.00;;;3.08;;
21639;SDS011;10981;45.462;10.974;2023-04-03T14:33:47;7.88;;;2.75;;
21639;SDS011;10981;45.462;10.974;2023-04-03T14:36:23;5.28;;;2.55;;
21639;SDS011;10981;45.462;10.974;2023-04-03T14:38:53;6.13;;;2.92;;
21639;SDS011;10981;45.462;10.974;2023-04-03T14:41:23;8.60;;;2.65;;
21639;SDS011;10981;45.462;10.974;2023-04-03T14:43:52;9.63;;;2.67;;
21639;SDS011;10981;45.462;10.974;2023-04-03T14:46:33;5.90;;;2.70;;
21639;SDS011;10981;45.462;10.974;2023-04-03T14:49:23;11.38;;;3.72;;
21639;SDS011;10981;45.462;10.974;2023-04-03T14:51:55;7.47;;;2.33;;
21639;SDS011;10981;45.462;10.974;2023-04-03T14:54:24;9.43;;;3.65;;
21639;SDS011;10981;45.462;10.974;2023-04-03T14:57:10;7.55;;;2.97;;
21639;SDS011;10981;45.462;10.974;2023-04-03T14:59:42;8.38;;;3.08;;
21639;SDS011;10981;45.462;10.974;2023-04-03T15:02:22;9.05;;;3.42;;
21639;SDS011;10981;45.462;10.974;2023-04-03T15:04:55;5.90;;;3.00;;
21639;SDS011;10981;45.462;10.974;2023-04-03T15:07:25;5.68;;;2.63;;
21639;SDS011;10981;45.462;10.974;2023-04-03T15:09:55;8.65;;;3.45;;
21639;SDS011;10981;45.462;10.974;2023-04-03T15:12:44;8.52;;;3.75;;
21639;SDS011;10981;45.462;10.974;2023-04-03T15:15:15;8.60;;;3.13;;
21639;SDS011;10981;45.462;10.974;2023-04-03T15:17:44;5.30;;;2.70;;
21639;SDS011;10981;45.462;10.974;2023-04-03T15:20:16;7.03;;;3.72;;
21639;SDS011;10981;45.462;10.974;2023-04-03T15:22:45;9.88;;;3.92;;
21639;SDS011;10981;45.462;10.974;2023-04-03T15:25:14;6.70;;;3.05;;
21639;SDS011;10981;45.462;10.974;2023-04-03T15:27:43;5.78;;;2.90;;
21639;SDS011;10981;45.462;10.974;2023-04-03T15:30:17;8.38;;;2.85;;
21639;SDS011;10981;45.462;10.974;2023-04-03T15:32:46;8.43;;;2.90;;
21639;SDS011;10981;45.462;10.974;2023-04-03T15:35:15;6.80;;;2.80;;
21639;SDS011;10981;45.462;10.974;2023-04-03T15:37:43;13.27;;;3.03;;
21639;SDS011;10981;45.462;10.974;2023-04-03T15:40:12;6.00;;;2.47;;
21639;SDS011;10981;45.462;10.974;2023-04-03T15:42:43;13.98;;;3.90;;
21639;SDS011;10981;45.462;10.974;2023-04-03T15:45:11;7.38;;;3.08;;
21639;SDS011;10981;45.462;10.974;2023-04-03T15:47:39;7.28;;;2.80;;
21639;SDS011;10981;45.462;10.974;2023-04-03T15:50:08;6.85;;;2.90;;
21639;SDS011;10981;45.462;10.974;2023-04-03T15:52:37;11.50;;;2.78;;
21639;SDS011;10981;45.462;10.974;2023-04-03T15:55:05;10.80;;;3.08;;
21639;SDS011;10981;45.462;10.974;2023-04-03T15:57:34;11.48;;;2.90;;
21639;SDS011;10981;45.462;10.974;2023-04-03T16:00:07;7.70;;;3.00;;
21639;SDS011;10981;45.462;10.974;2023-04-03T16:02:36;8.77;;;2.78;;
21639;SDS011;10981;45.462;10.974;2023-04-03T16:05:04;7.53;;;2.80;;
21639;SDS011;10981;45.462;10.974;2023-04-03T16:07:33;5.47;;;2.60;;
21639;SDS011;10981;45.462;10.974;2023-04-03T16:10:01;9.15;;;2.47;;
21639;SDS011;10981;45.462;10.974;2023-04-03T16:12:33;7.07;;;2.47;;
21639;SDS011;10981;45.462;10.974;2023-04-03T16:15:02;5.63;;;2.17;;
21639;SDS011;10981;45.462;10.974;2023-04-03T16:17:32;11.13;;;2.97;;
21639;SDS011;10981;45.462;10.974;2023-04-03T16:20:03;7.38;;;2.72;;
21639;SDS011;10981;45.462;10.974;2023-04-03T16:22:33;5.93;;;2.10;;
21639;SDS011;10981;45.462;10.974;2023-04-03T16:25:02;7.70;;;2.45;;
21639;SDS011;10981;45.462;10.974;2023-04-03T16:27:36;8.35;;;2.67;;
21639;SDS011;10981;45.462;10.974;2023-04-03T16:30:05;8.40;;;2.45;;
21639;SDS011;10981;45.462;10.974;2023-04-03T16:32:36;7.80;;;2.78;;
21639;SDS011;10981;45.462;10.974;2023-04-03T16:35:06;11.15;;;2.88;;
21639;SDS011;10981;45.462;10.974;2023-04-03T16:37:47;4.75;;;2.33;;
21639;SDS011;10981;45.462;10.974;2023-04-03T16:40:15;9.60;;;2.80;;
21639;SDS011;10981;45.462;10.974;2023-04-03T16:42:43;11.23;;;3.13;;
21639;SDS011;10981;45.462;10.974;2023-04-03T16:45:12;7.03;;;2.72;;
21639;SDS011;10981;45.462;10.974;2023-04-03T16:47:41;8.25;;;2.47;;
21639;SDS011;10981;45.462;10.974;2023-04-03T16:50:09;6.18;;;2.20;;
21639;SDS011;10981;45.462;10.974;2023-04-03T16:52:38;5.82;;;2.45;;
21639;SDS011;10981;45.462;10.974;2023-04-03T16:55:07;6.00;;;2.08;;
21639;SDS011;10981;45.462;10.974;2023-04-03T16:57:35;6.93;;;1.95;;
21639;SDS011;10981;45.462;10.974;2023-04-03T17:00:04;7.80;;;2.20;;
21639;SDS011;10981;45.462;10.974;2023-04-03T17:02:34;5.60;;;2.10;;
21639;SDS011;10981;45.462;10.974;2023-04-03T17:05:02;5.40;;;1.75;;
21639;SDS011;10981;45.462;10.974;2023-04-03T17:07:31;7.50;;;2.20;;
21639;SDS011;10981;45.462;10.974;2023-04-03T17:09:59;8.38;;;2.10;;
21639;SDS011;10981;45.462;10.974;2023-04-03T17:12:27;10.43;;;2.42;;